Time;durP1;ratioP1;P1;durP2;ratioP2;P2;SDS_P1;SDS_P2;PMS_P1;PMS_P2;Temp;Humidity;BMP_temperature;BMP_pressure;BME280_temperature;BME280_humidity;BME280_pressure;Samples;Min_cycle;Max_cycle;Signal;HPM_P1;HPM_P2
2022/09/12 00:01:18;;;;;;;7.18;6.50;;;19.80;91.10;;;;;;5074684;28;20025;-73
2022/09/12 00:03:44;;;;;;;9.35;8.35;;;19.80;91.10;;;;;;5074702;28;20033;-73
2022/09/12 00:06:15;;;;;;;9.80;8.80;;;19.90;91.00;;;;;;5074175;28;20033;-73
2022/09/12 00:08:40;;;;;;;9.73;8.80;;;19.90;90.90;;;;;;5074313;28;20032;-72
2022/09/12 00:11:08;;;;;;;10.57;9.52;;;19.90;90.90;;;;;;5074155;28;20040;-72
2022/09/12 00:13:35;;;;;;;8.52;7.70;;;19.90;90.80;;;;;;5073349;28;20529;-73
2022/09/12 00:16:01;;;;;;;9.82;8.60;;;20.00;90.80;;;;;;5073991;28;20040;-73
2022/09/12 00:18:27;;;;;;;9.02;8.05;;;20.00;90.80;;;;;;5074428;28;20479;-73
2022/09/12 00:20:52;;;;;;;12.57;10.57;;;20.00;90.80;;;;;;5074342;28;20029;-73
2022/09/12 00:23:18;;;;;;;11.25;10.05;;;20.10;90.70;;;;;;5074158;28;20036;-73
2022/09/12 00:25:46;;;;;;;8.70;7.90;;;20.10;90.70;;;;;;5073692;28;20033;-73
2022/09/12 00:28:15;;;;;;;11.05;9.95;;;20.10;90.70;;;;;;5073930;28;20057;-73
2022/09/12 00:30:47;;;;;;;9.32;8.23;;;20.10;90.70;;;;;;5073814;28;20027;-73
2022/09/12 00:33:14;;;;;;;9.25;8.35;;;20.10;90.70;;;;;;5073995;28;20380;-73
2022/09/12 00:35:44;;;;;;;11.93;10.65;;;20.20;90.60;;;;;;5073669;28;20469;-73
2022/09/12 00:38:11;;;;;;;10.50;9.43;;;20.20;90.60;;;;;;5073624;28;20602;-73
2022/09/12 00:40:37;;;;;;;10.75;9.52;;;20.10;90.50;;;;;;5073738;28;20040;-73
2022/09/12 00:43:03;;;;;;;10.18;9.00;;;20.10;90.50;;;;;;5073937;28;20472;-73
2022/09/12 00:45:29;;;;;;;12.88;11.60;;;20.10;90.50;;;;;;5073869;28;20028;-72
2022/09/12 00:47:59;;;;;;;9.35;8.43;;;20.10;90.50;;;;;;5073687;28;20052;-73
2022/09/12 00:50:25;;;;;;;14.15;12.57;;;20.00;90.40;;;;;;5073470;28;20063;-73
2022/09/12 00:53:03;;;;;;;14.13;12.68;;;19.90;90.40;;;;;;5073496;28;20052;-73
2022/09/12 00:55:38;;;;;;;13.57;12.20;;;19.80;90.50;;;;;;5073329;28;20078;-73
2022/09/12 00:58:20;;;;;;;13.57;12.18;;;19.70;90.60;;;;;;5073680;28;20016;-73
2022/09/12 01:00:46;;;;;;;14.95;13.45;;;19.60;90.80;;;;;;5073757;28;20442;-73
2022/09/12 01:03:14;;;;;;;16.30;13.35;;;19.50;90.90;;;;;;5073482;28;20090;-72
2022/09/12 01:05:51;;;;;;;18.20;15.70;;;19.40;91.10;;;;;;5073529;28;20025;-73
2022/09/12 01:08:16;;;;;;;16.50;14.80;;;19.20;91.20;;;;;;5073564;28;20439;-72
2022/09/12 01:10:42;;;;;;;17.70;14.43;;;19.10;91.50;;;;;;5073408;28;20048;-72
2022/09/12 01:13:09;;;;;;;16.05;14.43;;;19.10;91.70;;;;;;5073092;28;20411;-72
2022/09/12 01:15:39;;;;;;;13.05;11.80;;;19.00;91.70;;;;;;5072999;28;20031;-73
2022/09/12 01:18:46;;;;;;;16.63;12.73;;;19.00;91.70;;;;;;5073433;28;20036;-72
2022/09/12 01:21:20;;;;;;;15.75;13.15;;;19.10;91.70;;;;;;5072820;28;20028;-73
2022/09/12 01:24:15;;;;;;;16.52;14.70;;;19.20;91.60;;;;;;5072917;28;20032;-73
2022/09/12 01:26:59;;;;;;;17.25;15.45;;;19.10;91.50;;;;;;5072900;28;20468;-73
2022/09/12 01:29:40;;;;;;;16.92;13.90;;;19.00;91.60;;;;;;5073077;28;20547;-73
2022/09/12 01:32:28;;;;;;;13.35;11.05;;;19.00;91.70;;;;;;5073133;28;20029;-72
2022/09/12 01:35:14;;;;;;;13.48;12.13;;;19.10;91.90;;;;;;5073147;28;20525;-73
2022/09/12 01:38:02;;;;;;;13.77;11.57;;;19.10;91.60;;;;;;5073089;28;20426;-73
2022/09/12 01:40:37;;;;;;;17.55;15.65;;;19.10;91.60;;;;;;5072907;28;20025;-72
2022/09/12 01:43:25;;;;;;;14.13;12.68;;;19.10;91.60;;;;;;5073033;28;20457;-72
2022/09/12 01:46:02;;;;;;;19.05;16.42;;;19.10;91.60;;;;;;5073235;28;20396;-73
2022/09/12 01:48:56;;;;;;;18.92;16.40;;;19.30;91.60;;;;;;5073221;28;20060;-73
2022/09/12 01:51:34;;;;;;;16.45;13.38;;;19.10;91.50;;;;;;5072940;28;20020;-73
2022/09/12 01:54:15;;;;;;;20.25;16.17;;;19.10;91.60;;;;;;5073186;28;20074;-73
2022/09/12 01:56:42;;;;;;;14.75;13.20;;;19.10;91.70;;;;;;5072813;28;20511;-73
2022/09/12 01:59:31;;;;;;;17.70;14.32;;;19.10;91.70;;;;;;5072841;28;20033;-73
2022/09/12 02:02:11;;;;;;;17.30;15.10;;;19.20;91.60;;;;;;5066208;28;20056;-72
2022/09/12 02:04:59;;;;;;;17.55;15.30;;;19.10;91.50;;;;;;5072794;28;20424;-73
2022/09/12 02:07:43;;;;;;;16.48;14.25;;;19.10;91.50;;;;;;5072835;28;20032;-73
2022/09/12 02:10:26;;;;;;;15.18;12.35;;;19.10;91.50;;;;;;5073029;28;20048;-73
2022/09/12 02:12:58;;;;;;;14.70;12.85;;;19.10;91.50;;;;;;5072445;28;20530;-73
2022/09/12 02:15:33;;;;;;;12.32;11.02;;;19.20;91.50;;;;;;5072679;28;20624;-73
2022/09/12 02:18:01;;;;;;;12.52;10.48;;;19.20;91.50;;;;;;5072527;28;20430;-72
2022/09/12 02:20:37;;;;;;;18.02;14.82;;;19.20;91.40;;;;;;5072889;28;20025;-72
2022/09/12 02:23:08;;;;;;;17.02;14.95;;;19.30;91.40;;;;;;5072895;28;20059;-72
2022/09/12 02:25:42;;;;;;;9.93;8.75;;;19.30;91.30;;;;;;5072412;28;20060;-72
2022/09/12 02:28:15;;;;;;;9.85;8.82;;;19.30;91.30;;;;;;5072420;28;20404;-73
2022/09/12 02:31:20;;;;;;;14.02;11.27;;;19.30;91.30;;;;;;5072556;28;20029;-72
2022/09/12 02:34:05;;;;;;;15.82;13.88;;;19.40;91.30;;;;;;5072825;28;20051;-72
2022/09/12 02:36:43;;;;;;;18.42;16.45;;;19.40;91.20;;;;;;5074563;28;20107;-72
2022/09/12 02:39:08;;;;;;;14.98;12.90;;;19.40;91.20;;;;;;5076033;28;20551;-72
2022/09/12 02:41:34;;;;;;;21.73;17.65;;;19.40;91.20;;;;;;5076185;28;20063;-73
2022/09/12 02:44:02;;;;;;;21.15;18.83;;;19.50;91.10;;;;;;5076113;28;20099;-72
2022/09/12 02:46:37;;;;;;;24.38;19.98;;;19.40;91.00;;;;;;5075811;28;20040;-72
2022/09/12 02:49:03;;;;;;;12.50;11.18;;;19.30;91.10;;;;;;5075915;28;20470;-72
2022/09/12 02:51:29;;;;;;;18.92;16.50;;;19.20;91.20;;;;;;5076031;28;20029;-73
2022/09/12 02:53:55;;;;;;;21.80;18.85;;;19.20;91.20;;;;;;5075744;28;20075;-72
2022/09/12 02:56:25;;;;;;;19.98;17.40;;;19.20;91.30;;;;;;5075489;28;20119;-72
2022/09/12 02:58:53;;;;;;;20.88;17.58;;;19.20;91.30;;;;;;5075834;28;20353;-72
2022/09/12 03:01:24;;;;;;;19.45;15.45;;;19.20;91.20;;;;;;5075770;28;20032;-73
2022/09/12 03:04:09;;;;;;;14.48;11.30;;;19.20;91.30;;;;;;5075672;28;20031;-72
2022/09/12 03:06:54;;;;;;;23.58;18.88;;;19.20;91.30;;;;;;5075358;28;20028;-72
2022/09/12 03:09:36;;;;;;;20.02;17.58;;;19.20;91.30;;;;;;5075535;28;20031;-72
2022/09/12 03:12:10;;;;;;;25.02;20.50;;;19.20;91.30;;;;;;5075826;28;20082;-72
2022/09/12 03:15:00;;;;;;;20.88;17.25;;;19.20;91.20;;;;;;5075666;28;20028;-72
2022/09/12 03:17:43;;;;;;;23.15;19.13;;;19.20;91.20;;;;;;5075725;28;20115;-72
2022/09/12 03:20:14;;;;;;;20.55;17.65;;;19.20;91.30;;;;;;5075120;28;20027;-72
2022/09/12 03:22:57;;;;;;;18.30;15.45;;;19.20;91.20;;;;;;5075732;28;20528;-72
2022/09/12 03:25:50;;;;;;;21.38;18.17;;;19.20;91.20;;;;;;5075480;28;20040;-73
2022/09/12 03:28:18;;;;;;;22.05;18.08;;;19.20;91.10;;;;;;5074920;28;20063;-72
2022/09/12 03:30:47;;;;;;;23.05;18.98;;;19.30;91.20;;;;;;5075589;28;20036;-72
2022/09/12 03:33:16;;;;;;;22.15;18.88;;;19.30;91.20;;;;;;5075323;28;20039;-72
2022/09/12 03:35:42;;;;;;;27.13;20.60;;;19.20;91.10;;;;;;5075164;28;20050;-72
2022/09/12 03:38:08;;;;;;;26.98;20.48;;;19.20;91.10;;;;;;5075242;28;20025;-72
2022/09/12 03:40:35;;;;;;;25.27;20.15;;;19.20;91.20;;;;;;5074854;28;20040;-72
2022/09/12 03:43:01;;;;;;;23.30;17.40;;;19.20;91.30;;;;;;5074951;28;20028;-72
2022/09/12 03:45:27;;;;;;;23.58;19.70;;;19.20;91.20;;;;;;5074705;28;20024;-72
2022/09/12 03:47:52;;;;;;;21.55;17.45;;;19.10;91.30;;;;;;5075034;28;20108;-72
2022/09/12 03:50:18;;;;;;;23.40;18.40;;;19.10;91.30;;;;;;5074703;28;20085;-72
2022/09/12 03:52:43;;;;;;;22.50;18.75;;;19.00;91.40;;;;;;5074748;28;20032;-72
2022/09/12 03:55:09;;;;;;;22.85;18.95;;;19.00;91.40;;;;;;5074632;28;20435;-72
2022/09/12 03:57:35;;;;;;;22.85;18.92;;;18.90;91.50;;;;;;5074777;28;20481;-72
2022/09/12 04:00:01;;;;;;;27.00;20.25;;;18.90;91.50;;;;;;5074744;28;20044;-72
2022/09/12 04:02:28;;;;;;;27.25;19.83;;;18.90;91.70;;;;;;5074419;28;20028;-72
2022/09/12 04:04:53;;;;;;;22.30;18.05;;;18.90;91.70;;;;;;5074457;28;20024;-72
2022/09/12 04:07:19;;;;;;;27.55;20.88;;;18.90;91.80;;;;;;5074547;28;20031;-72
2022/09/12 04:09:44;;;;;;;27.42;21.38;;;18.80;91.80;;;;;;5074288;28;20035;-72
2022/09/12 04:12:11;;;;;;;26.75;21.05;;;18.80;91.90;;;;;;5074221;28;20070;-72
2022/09/12 04:14:37;;;;;;;26.58;21.08;;;18.80;91.90;;;;;;5073906;28;20028;-72
2022/09/12 04:17:03;;;;;;;30.67;23.77;;;18.70;92.10;;;;;;5074269;28;20385;-72
2022/09/12 04:19:28;;;;;;;23.13;17.23;;;18.70;92.20;;;;;;5074351;28;20024;-72
2022/09/12 04:21:54;;;;;;;22.35;16.25;;;18.70;92.30;;;;;;5074153;28;20032;-72
2022/09/12 04:24:19;;;;;;;23.15;18.40;;;18.70;92.40;;;;;;5074143;28;20016;-72
2022/09/12 04:26:45;;;;;;;23.95;18.85;;;18.70;92.30;;;;;;5073927;28;20029;-73
2022/09/12 04:29:11;;;;;;;25.98;19.08;;;18.70;92.30;;;;;;5073856;28;20031;-72
2022/09/12 04:31:37;;;;;;;33.10;23.63;;;18.70;92.30;;;;;;5074040;28;20108;-72
2022/09/12 04:34:04;;;;;;;23.42;18.20;;;18.70;92.40;;;;;;5074123;28;20124;-72
2022/09/12 04:36:30;;;;;;;30.15;22.95;;;18.70;92.40;;;;;;5073832;28;20085;-72
2022/09/12 04:38:57;;;;;;;27.10;21.50;;;18.60;92.40;;;;;;5073622;28;20024;-72
2022/09/12 04:41:25;;;;;;;30.38;22.92;;;18.60;92.50;;;;;;5073837;28;20530;-72
2022/09/12 04:44:03;;;;;;;29.50;21.00;;;18.60;92.60;;;;;;5073804;28;20413;-72
2022/09/12 04:46:32;;;;;;;24.17;17.80;;;18.60;92.70;;;;;;5073913;28;20044;-72
2022/09/12 04:48:58;;;;;;;19.85;15.52;;;18.60;92.70;;;;;;5073776;28;20016;-72
2022/09/12 04:51:29;;;;;;;36.88;26.13;;;18.60;92.70;;;;;;5073660;28;20032;-72
2022/09/12 04:53:58;;;;;;;20.52;15.85;;;18.60;92.80;;;;;;5073302;28;20471;-72
2022/09/12 04:56:25;;;;;;;33.88;24.73;;;18.50;92.90;;;;;;5073405;28;20155;-72
2022/09/12 04:58:51;;;;;;;26.10;19.27;;;18.50;92.90;;;;;;5073185;28;20025;-73
2022/09/12 05:01:18;;;;;;;31.48;23.15;;;18.50;93.10;;;;;;5073279;28;20020;-72
2022/09/12 05:03:45;;;;;;;27.75;19.90;;;18.50;93.00;;;;;;5073257;28;20384;-72
2022/09/12 05:06:33;;;;;;;38.10;25.27;;;18.50;93.20;;;;;;5073156;28;20028;-72
2022/09/12 05:09:00;;;;;;;34.17;24.25;;;18.40;93.10;;;;;;5073177;28;20074;-72
2022/09/12 05:11:28;;;;;;;33.42;23.02;;;18.40;93.20;;;;;;5073500;28;20036;-72
2022/09/12 05:13:54;;;;;;;35.17;23.65;;;18.30;93.30;;;;;;5073246;28;20024;-73
2022/09/12 05:16:21;;;;;;;30.05;21.30;;;18.30;93.30;;;;;;5072854;28;20032;-72
2022/09/12 05:18:49;;;;;;;31.10;20.67;;;18.40;93.50;;;;;;5073143;28;20404;-72
2022/09/12 05:21:17;;;;;;;28.95;19.33;;;18.40;93.40;;;;;;5073600;28;20067;-72
2022/09/12 05:23:43;;;;;;;30.83;20.38;;;18.40;93.30;;;;;;5073413;28;20052;-72
2022/09/12 05:26:13;;;;;;;23.00;17.77;;;18.50;93.30;;;;;;5073351;28;20052;-72
2022/09/12 05:28:39;;;;;;;29.90;20.02;;;18.50;93.30;;;;;;5072710;28;20044;-72
2022/09/12 05:31:06;;;;;;;27.58;19.63;;;18.50;93.30;;;;;;5073173;28;20025;-72
2022/09/12 05:33:34;;;;;;;30.27;20.60;;;18.50;93.30;;;;;;5073128;28;20034;-72
2022/09/12 05:36:00;;;;;;;26.25;19.42;;;18.60;93.20;;;;;;5072801;28;20082;-72
2022/09/12 05:38:29;;;;;;;33.83;23.80;;;18.70;93.20;;;;;;5073233;28;20039;-72
2022/09/12 05:41:09;;;;;;;34.00;24.55;;;18.70;93.20;;;;;;5072833;28;20357;-72
2022/09/12 05:43:37;;;;;;;25.05;18.42;;;18.70;93.10;;;;;;5072697;28;20051;-72
2022/09/12 05:46:04;;;;;;;36.65;21.88;;;18.70;93.10;;;;;;5072924;28;20056;-72
2022/09/12 05:48:30;;;;;;;40.63;26.60;;;18.70;93.10;;;;;;5072897;28;20142;-72
2022/09/12 05:51:05;;;;;;;36.13;23.65;;;18.70;93.20;;;;;;5072898;28;20056;-72
2022/09/12 05:53:31;;;;;;;35.38;23.60;;;18.70;93.20;;;;;;5072710;28;20426;-72
2022/09/12 05:56:11;;;;;;;28.73;18.80;;;18.70;93.10;;;;;;5072550;28;20036;-72
2022/09/12 05:58:39;;;;;;;44.58;27.20;;;18.80;93.10;;;;;;5072605;28;20425;-72
2022/09/12 06:01:17;;;;;;;48.70;28.35;;;18.80;93.10;;;;;;5072930;28;20037;-73
2022/09/12 06:03:44;;;;;;;49.92;31.00;;;18.80;93.10;;;;;;5072767;28;20074;-72
2022/09/12 06:06:14;;;;;;;41.13;26.95;;;18.70;93.10;;;;;;5072161;28;20067;-72
2022/09/12 06:08:42;;;;;;;42.88;29.20;;;18.70;93.20;;;;;;5072791;28;20028;-72
2022/09/12 06:11:10;;;;;;;40.72;26.60;;;18.70;93.30;;;;;;5074396;28;20085;-72
2022/09/12 06:13:38;;;;;;;44.67;25.75;;;18.70;93.40;;;;;;5076241;28;20387;-72
2022/09/12 06:16:10;;;;;;;41.78;26.70;;;18.70;93.30;;;;;;5076388;28;20038;-72
2022/09/12 06:18:37;;;;;;;43.13;27.88;;;18.70;93.30;;;;;;5076166;28;20021;-72
2022/09/12 06:21:04;;;;;;;46.95;27.25;;;18.80;93.30;;;;;;5076229;28;20021;-72
2022/09/12 06:23:30;;;;;;;45.85;28.38;;;18.70;93.30;;;;;;5076047;28;20033;-72
2022/09/12 06:25:56;;;;;;;41.92;25.70;;;18.80;93.30;;;;;;5076081;28;20039;-72
2022/09/12 06:28:22;;;;;;;43.40;26.60;;;18.70;93.30;;;;;;5076028;28;20389;-72
2022/09/12 06:30:47;;;;;;;42.97;26.17;;;18.80;93.40;;;;;;5076198;28;20035;-72
2022/09/12 06:33:14;;;;;;;42.13;26.02;;;18.80;93.40;;;;;;5076294;28;20353;-72
2022/09/12 06:35:39;;;;;;;43.13;26.48;;;18.80;93.50;;;;;;5075982;28;20028;-72
2022/09/12 06:38:05;;;;;;;39.58;26.17;;;18.80;93.50;;;;;;5075783;28;20067;-72
2022/09/12 06:40:31;;;;;;;43.53;26.95;;;18.80;93.60;;;;;;5076039;28;20020;-72
2022/09/12 06:42:57;;;;;;;49.80;30.05;;;18.80;93.60;;;;;;5075463;28;20056;-73
2022/09/12 06:45:22;;;;;;;43.30;26.63;;;18.70;93.70;;;;;;5076181;28;20467;-72
2022/09/12 06:47:48;;;;;;;46.75;28.70;;;18.70;93.80;;;;;;5076128;28;20025;-72
2022/09/12 06:50:13;;;;;;;41.70;27.17;;;18.70;93.80;;;;;;5075728;28;20040;-72
2022/09/12 06:52:39;;;;;;;42.58;26.48;;;18.60;93.80;;;;;;5075939;28;20033;-72
2022/09/12 06:55:05;;;;;;;47.67;27.80;;;18.70;93.80;;;;;;5075952;28;20020;-72
2022/09/12 06:57:35;;;;;;;43.10;28.50;;;18.70;93.90;;;;;;5075373;28;20535;-73
2022/09/12 07:00:03;;;;;;;49.50;31.05;;;18.70;93.90;;;;;;5075596;28;20111;-73
2022/09/12 07:02:29;;;;;;;47.70;29.63;;;18.60;93.90;;;;;;5075723;28;20029;-73
2022/09/12 07:04:55;;;;;;;49.47;29.30;;;18.50;94.00;;;;;;5075544;28;20021;-72
2022/09/12 07:07:21;;;;;;;44.28;27.25;;;18.50;94.20;;;;;;5075373;28;20025;-72
2022/09/12 07:09:46;;;;;;;51.08;32.22;;;18.60;94.30;;;;;;5075641;28;20067;-78
2022/09/12 07:12:12;;;;;;;52.65;33.30;;;18.60;94.60;;;;;;5075679;28;20536;-78
2022/09/12 07:14:38;;;;;;;51.53;32.20;;;18.60;94.80;;;;;;5075679;28;20052;-79
2022/09/12 07:17:03;;;;;;;52.97;33.78;;;18.60;94.60;;;;;;5075450;28;20039;-78
2022/09/12 07:19:29;;;;;;;53.08;32.53;;;18.60;94.80;;;;;;5075369;28;20025;-78
2022/09/12 07:21:55;;;;;;;52.22;31.02;;;18.70;94.90;;;;;;5074923;28;20383;-77
2022/09/12 07:24:21;;;;;;;48.05;29.10;;;18.80;94.90;;;;;;5075697;28;20030;-78
2022/09/12 07:26:46;;;;;;;46.47;29.40;;;18.80;94.70;;;;;;5075097;28;20161;-78
2022/09/12 07:29:15;;;;;;;45.90;28.95;;;18.80;94.50;;;;;;5075121;28;20040;-78
2022/09/12 07:31:41;;;;;;;48.90;29.85;;;18.80;94.40;;;;;;5075317;28;20047;-80
2022/09/12 07:34:06;;;;;;;46.60;30.27;;;18.90;94.30;;;;;;5075193;28;20465;-79
2022/09/12 07:36:33;;;;;;;51.35;32.35;;;18.80;94.20;;;;;;5075164;28;20429;-78
2022/09/12 07:38:58;;;;;;;51.28;32.45;;;18.80;94.40;;;;;;5074830;28;20025;-78
2022/09/12 07:41:29;;;;;;;50.55;32.78;;;18.80;94.40;;;;;;5074923;28;20396;-79
2022/09/12 07:43:57;;;;;;;50.85;30.95;;;18.80;94.50;;;;;;5075138;28;20048;-77
2022/09/12 07:46:23;;;;;;;43.70;26.90;;;18.80;94.40;;;;;;5074733;28;20392;-78
2022/09/12 07:48:54;;;;;;;49.78;31.90;;;18.90;94.40;;;;;;5074762;28;20020;-77
2022/09/12 07:51:21;;;;;;;51.03;31.58;;;19.00;94.70;;;;;;5074553;28;20033;-78
2022/09/12 07:53:48;;;;;;;49.70;32.45;;;19.10;94.50;;;;;;5074815;28;20024;-80
2022/09/12 07:56:14;;;;;;;50.72;32.17;;;19.10;94.20;;;;;;5074625;28;20037;-78
2022/09/12 07:58:41;;;;;;;50.67;31.83;;;19.20;94.10;;;;;;5074524;28;20024;-79
2022/09/12 08:01:19;;;;;;;51.85;33.10;;;19.10;93.80;;;;;;5074493;28;20025;-79
2022/09/12 08:03:47;;;;;;;45.92;30.90;;;19.10;94.00;;;;;;5074331;28;20024;-78
2022/09/12 08:06:20;;;;;;;49.67;31.65;;;19.10;94.00;;;;;;5074292;28;20032;-78
2022/09/12 08:08:47;;;;;;;48.13;32.28;;;19.10;94.30;;;;;;5074603;28;20056;-77
2022/09/12 08:11:15;;;;;;;49.97;32.75;;;19.00;94.40;;;;;;5074280;28;20108;-78
2022/09/12 08:13:42;;;;;;;49.67;31.90;;;19.10;94.40;;;;;;5074402;28;20123;-78
2022/09/12 08:16:12;;;;;;;50.78;31.20;;;19.20;94.30;;;;;;5074080;28;20380;-78
2022/09/12 08:18:39;;;;;;;44.70;29.17;;;19.30;94.20;;;;;;5074407;28;20115;-78
2022/09/12 08:21:11;;;;;;;47.53;30.08;;;19.50;94.10;;;;;;5073971;28;20096;-76
2022/09/12 08:23:37;;;;;;;40.60;27.23;;;19.60;93.70;;;;;;5074284;28;20486;-78
2022/09/12 08:26:04;;;;;;;40.08;25.55;;;19.80;93.30;;;;;;5073940;28;20028;-78
2022/09/12 08:28:31;;;;;;;40.70;26.27;;;20.00;92.90;;;;;;5073732;28;20059;-77
2022/09/12 08:31:01;;;;;;;44.17;29.85;;;20.10;92.70;;;;;;5073909;28;20040;-77
2022/09/12 08:33:31;;;;;;;41.08;29.15;;;20.20;92.90;;;;;;5073338;28;20031;-76
2022/09/12 08:36:04;;;;;;;39.20;27.98;;;20.10;93.30;;;;;;5073591;28;20388;-78
2022/09/12 08:38:29;;;;;;;;;;;20.20;93.10;;;;;;5074435;28;20048;-77
2022/09/12 08:41:13;;;;;;;39.17;25.48;;;20.10;92.90;;;;;;5073634;28;20351;-78
2022/09/12 08:44:11;;;;;;;36.20;24.52;;;20.20;92.70;;;;;;5073660;28;20036;-77
2022/09/12 08:46:56;;;;;;;33.33;23.90;;;20.30;92.30;;;;;;5050601;28;20395;-78
2022/09/12 08:49:53;;;;;;;32.47;21.45;;;20.50;91.90;;;;;;5073734;28;20054;-77
2022/09/12 08:52:57;;;;;;;37.95;25.63;;;20.70;91.60;;;;;;5055632;28;20036;-77
2022/09/12 08:55:33;;;;;;;32.40;22.52;;;20.90;92.40;;;;;;5073489;28;20107;-77
2022/09/12 08:58:01;;;;;;;35.67;23.35;;;21.00;91.90;;;;;;5073389;28;20036;-78
2022/09/12 09:00:37;;;;;;;35.17;22.15;;;21.10;91.50;;;;;;5073310;28;20448;-78
2022/09/12 09:03:18;;;;;;;33.70;24.10;;;21.30;91.30;;;;;;5073399;28;20514;-77
2022/09/12 09:06:02;;;;;;;31.27;21.17;;;21.30;91.30;;;;;;5073639;28;20379;-76
2022/09/12 09:08:47;;;;;;;29.60;19.50;;;21.40;91.50;;;;;;5072858;28;20024;-78
2022/09/12 09:11:12;;;;;;;31.40;20.98;;;21.60;90.40;;;;;;5073275;28;20021;-76
2022/09/12 09:16:58;;;;;;;33.63;23.08;;;21.80;90.10;;;;;;5073258;28;20132;-78
2022/09/12 09:19:33;;;;;;;28.38;19.67;;;22.00;90.10;;;;;;5073522;28;20028;-77
2022/09/12 09:22:15;;;;;;;27.95;18.38;;;22.00;90.50;;;;;;5073281;28;20036;-77
2022/09/12 09:24:48;;;;;;;27.00;18.63;;;22.10;90.10;;;;;;5073165;28;20029;-77
2022/09/12 09:27:19;;;;;;;28.27;20.63;;;22.20;90.00;;;;;;5073155;28;20052;-78
2022/09/12 09:29:49;;;;;;;31.87;20.87;;;22.30;89.60;;;;;;5072983;28;20033;-77
2022/09/12 09:32:23;;;;;;;29.88;18.05;;;22.30;88.90;;;;;;5073199;28;20024;-77
2022/09/12 09:34:50;;;;;;;25.60;15.80;;;22.40;88.60;;;;;;5073232;28;20090;-76
2022/09/12 09:37:20;;;;;;;28.90;17.42;;;22.60;88.10;;;;;;5073014;28;20032;-76
2022/09/12 09:39:54;;;;;;;25.15;16.73;;;22.60;87.70;;;;;;5072984;28;20029;-77
2022/09/12 09:42:30;;;;;;;24.42;16.52;;;22.70;87.90;;;;;;5072953;28;20082;-77
2022/09/12 09:44:59;;;;;;;29.30;14.90;;;22.90;88.40;;;;;;5074614;28;20032;-78
2022/09/12 09:47:25;;;;;;;21.25;14.05;;;23.00;87.90;;;;;;5077376;28;20071;-77
2022/09/12 09:49:51;;;;;;;23.27;17.13;;;23.10;87.00;;;;;;5077014;28;20541;-77
2022/09/12 09:52:27;;;;;;;24.05;14.38;;;23.20;86.40;;;;;;5076683;28;20139;-77
2022/09/12 09:54:59;;;;;;;21.95;14.55;;;23.30;85.70;;;;;;5077428;28;20067;-76
2022/09/12 09:57:33;;;;;;;18.75;12.43;;;23.40;85.90;;;;;;5076882;28;20070;-77
2022/09/12 10:00:26;;;;;;;14.88;10.90;;;23.40;86.00;;;;;;5076554;28;20380;-78
2022/09/12 10:03:11;;;;;;;;;;;23.60;85.50;;;;;;5077259;28;20032;-76
2022/09/12 10:06:20;;;;;;;12.00;9.00;;;23.70;85.20;;;;;;5076802;28;19908;-76
2022/09/12 10:08:47;;;;;;;13.50;9.68;;;23.80;84.50;;;;;;5073179;28;20028;-76
2022/09/12 10:11:22;;;;;;;9.77;6.88;;;23.90;84.20;;;;;;5076601;28;20021;-76
2022/09/12 10:13:53;;;;;;;9.32;7.57;;;23.90;83.90;;;;;;5076734;28;20029;-79
2022/09/12 10:16:46;;;;;;;15.20;7.97;;;24.10;82.60;;;;;;5076334;28;20028;-78
2022/09/12 10:19:23;;;;;;;7.60;5.45;;;24.10;82.00;;;;;;5076281;28;20421;-82
2022/09/12 10:21:53;;;;;;;8.55;5.72;;;24.20;79.80;;;;;;5076272;28;20028;-82
2022/09/12 10:24:31;;;;;;;8.02;6.40;;;24.30;80.60;;;;;;5076316;28;20025;-80
2022/09/12 10:27:14;;;;;;;7.82;5.82;;;24.50;80.90;;;;;;5076144;28;20028;-82
2022/09/12 10:29:52;;;;;;;8.77;5.90;;;24.60;80.40;;;;;;5076279;28;20063;-81
2022/09/12 10:32:29;;;;;;;7.97;6.03;;;24.70;78.90;;;;;;5076282;28;20094;-81
2022/09/12 10:35:02;;;;;;;6.30;4.38;;;24.70;78.40;;;;;;5076357;28;20099;-80
2022/09/12 10:37:34;;;;;;;6.72;4.85;;;24.80;78.00;;;;;;5075985;28;20480;-81
2022/09/12 10:40:01;;;;;;;5.97;4.82;;;24.80;76.40;;;;;;5075840;28;20028;-80
2022/09/12 10:42:49;;;;;;;8.48;5.57;;;24.90;76.30;;;;;;5075922;28;20523;-80
2022/09/12 10:45:27;;;;;;;6.78;4.97;;;25.10;76.30;;;;;;5075924;28;20036;-80
2022/09/12 10:47:57;;;;;;;6.95;5.75;;;25.10;75.00;;;;;;5075784;28;20444;-81
2022/09/12 10:50:25;;;;;;;7.55;6.18;;;25.10;74.70;;;;;;5076181;28;20048;-81
2022/09/12 10:52:52;;;;;;;8.77;6.55;;;25.10;73.70;;;;;;5075938;28;20048;-81
2022/09/12 10:55:24;;;;;;;6.72;5.78;;;25.00;73.70;;;;;;5075704;28;20499;-81
2022/09/12 10:58:42;;;;;;;7.68;4.50;;;25.00;74.00;;;;;;5074900;28;20469;-81
2022/09/12 11:01:28;;;;;;;7.95;6.00;;;25.10;75.30;;;;;;5055714;28;20179;-80
2022/09/12 11:04:11;;;;;;;5.60;4.10;;;25.20;73.80;;;;;;5075893;28;20456;-81
2022/09/12 11:06:42;;;;;;;6.13;4.25;;;25.30;72.50;;;;;;5075492;28;20025;-82
2022/09/12 11:09:22;;;;;;;7.13;5.10;;;25.30;72.60;;;;;;5075751;28;20142;-80
2022/09/12 11:12:01;;;;;;;7.38;5.60;;;25.40;73.60;;;;;;5075411;28;20035;-82
2022/09/12 11:14:30;;;;;;;9.52;5.97;;;25.40;71.40;;;;;;5075424;28;20504;-81
2022/09/12 11:17:05;;;;;;;5.20;4.70;;;25.40;70.80;;;;;;5075252;28;20046;-80
2022/09/12 11:19:33;;;;;;;6.35;5.13;;;25.30;71.00;;;;;;5075641;28;20074;-81
2022/09/12 11:22:11;;;;;;;9.50;5.38;;;25.30;70.60;;;;;;5075200;28;20028;-80
2022/09/12 11:25:02;;;;;;;7.00;4.47;;;25.40;71.50;;;;;;5075146;28;20028;-80
2022/09/12 11:28:04;;;;;;;5.82;3.55;;;25.40;71.60;;;;;;5075039;28;20135;-79
2022/09/12 11:30:51;;;;;;;5.07;4.55;;;25.60;70.40;;;;;;5075200;28;20025;-80
2022/09/12 11:33:38;;;;;;;6.43;4.45;;;25.70;69.40;;;;;;5074652;28;20468;-79
2022/09/12 11:36:09;;;;;;;7.68;5.97;;;25.70;69.50;;;;;;5074938;28;20025;-79
2022/09/12 11:38:49;;;;;;;5.72;5.22;;;25.60;69.10;;;;;;5074905;28;20060;-82
2022/09/12 11:41:26;;;;;;;6.38;4.65;;;25.60;69.60;;;;;;5075301;28;20029;-80
2022/09/12 11:44:31;;;;;;;3.78;3.25;;;25.50;69.30;;;;;;5075129;28;20024;-81
2022/09/12 11:46:59;;;;;;;2.40;2.10;;;25.60;69.00;;;;;;5054154;28;20045;-80
2022/09/12 11:49:36;;;;;;;4.18;2.80;;;25.80;68.70;;;;;;5075090;28;20035;-80
2022/09/12 11:52:18;;;;;;;2.80;2.53;;;25.90;67.80;;;;;;5075056;28;20028;-80
2022/09/12 11:55:06;;;;;;;1.58;1.48;;;26.00;67.80;;;;;;5074787;28;20029;-80
2022/09/12 11:57:52;;;;;;;3.03;2.25;;;26.20;69.50;;;;;;5074343;28;20052;-79
2022/09/12 12:00:20;;;;;;;4.95;2.10;;;26.40;69.00;;;;;;5074128;28;20043;-81
2022/09/12 12:03:09;;;;;;;4.57;2.08;;;26.50;68.50;;;;;;5073317;28;20112;-82
2022/09/12 12:06:11;;;;;;;4.03;2.80;;;26.60;68.20;;;;;;5073772;28;20047;-81
2022/09/12 12:08:40;;;;;;;4.70;2.67;;;26.70;66.60;;;;;;5072501;28;20434;-80
2022/09/12 12:11:07;;;;;;;4.05;3.17;;;26.80;66.20;;;;;;5074097;28;20486;-81
2022/09/12 12:13:47;;;;;;;2.47;2.03;;;26.80;65.80;;;;;;5074271;28;20028;-80
2022/09/12 12:16:20;;;;;;;4.60;2.85;;;26.80;67.80;;;;;;5074139;28;20028;-81
2022/09/12 12:18:59;;;;;;;2.17;1.98;;;26.90;66.40;;;;;;5074088;28;20028;-79
2022/09/12 12:21:33;;;;;;;4.40;2.85;;;27.00;65.30;;;;;;5074140;28;20028;-81
2022/09/12 12:24:08;;;;;;;2.85;2.63;;;27.00;65.50;;;;;;5073840;28;20175;-79
2022/09/12 12:26:39;;;;;;;3.38;2.10;;;27.00;64.20;;;;;;5073844;28;20055;-80
2022/09/12 12:29:17;;;;;;;4.43;2.03;;;26.90;64.80;;;;;;5073679;28;20514;-80
2022/09/12 12:32:04;;;;;;;1.88;1.65;;;26.90;64.80;;;;;;5074361;28;20408;-81
2022/09/12 12:34:32;;;;;;;4.38;2.72;;;27.10;64.00;;;;;;5073553;28;20039;-80
2022/09/12 12:37:18;;;;;;;3.80;2.40;;;27.10;64.00;;;;;;5073595;28;20047;-80
2022/09/12 12:39:47;;;;;;;2.20;2.00;;;27.20;63.80;;;;;;5073602;28;20020;-80
2022/09/12 12:42:34;;;;;;;5.00;1.80;;;27.20;63.80;;;;;;5073879;28;20112;-80
2022/09/12 12:45:23;;;;;;;2.25;1.73;;;27.30;64.00;;;;;;5073613;28;20020;-80
2022/09/12 12:48:13;;;;;;;3.25;1.30;;;27.30;63.40;;;;;;5073091;28;20361;-79
2022/09/12 12:50:39;;;;;;;2.20;1.63;;;27.40;64.20;;;;;;5073460;28;20032;-79
2022/09/12 12:53:24;;;;;;;2.58;1.30;;;27.50;64.80;;;;;;5073496;28;20020;-79
2022/09/12 12:55:52;;;;;;;3.45;1.85;;;27.50;63.20;;;;;;5073679;28;20028;-79
2022/09/12 12:58:27;;;;;;;3.08;1.83;;;27.50;61.70;;;;;;5073804;28;20123;-80
2022/09/12 13:01:21;;;;;;;2.15;1.42;;;27.40;60.80;;;;;;5073783;28;20157;-79
2022/09/12 13:03:54;;;;;;;2.75;1.50;;;27.40;61.90;;;;;;5073315;28;20020;-80
2022/09/12 13:06:32;;;;;;;4.35;1.70;;;27.50;62.10;;;;;;5073162;28;20464;-81